Newcomerstown, Ohio
Current Conditions -  °F | °C
As of 10:53 PM on Saturday 24 Jan 2015 (Local Time) from KPHD Reporting Station
Haze Haze  
Wind Chill: 30°   Ceiling: 2400
Heat Index: 34°   Visibility: 6mi
Dew Point: 29°   Wind: 5mph
Humidity: 82%   Direction: 260°W
Pressure: 29.73"   Gusts: NA
Location:  40.27°N, 81.61°W
Report Text: KPHD 250353Z AUTO 26004KT 6SM HZ FEW014 BKN024 OVC048 01/M02 A2973 RMK AO2 SLP077 T00111017
Loading
Personal Weather Stations






























Interactive Weather Map New forecast layout! Learn more

10-Day Weather Forecast

Advertisements
Track Severe Weather on mobile